createdAt,value
2022-08-06T00:00:15.226Z,0.90
2022-08-06T00:02:42.052Z,1.05
2022-08-06T00:05:08.794Z,1.15
2022-08-06T00:07:47.546Z,1.00
2022-08-06T00:10:16.221Z,0.82
2022-08-06T00:12:42.557Z,0.90
2022-08-06T00:15:13.602Z,0.93
2022-08-06T00:17:41.378Z,0.90
2022-08-06T00:20:07.971Z,1.05
2022-08-06T00:22:37.345Z,1.20
2022-08-06T00:25:03.884Z,0.95
2022-08-06T00:27:38.861Z,0.80
2022-08-06T00:30:18.273Z,1.10
2022-08-06T00:32:51.632Z,0.90
2022-08-06T00:35:19.565Z,1.15
2022-08-06T00:37:55.156Z,0.80
2022-08-06T00:40:26.005Z,0.80
2022-08-06T00:42:55.870Z,0.80
2022-08-06T00:45:24.141Z,0.90
2022-08-06T00:48:02.755Z,1.00
2022-08-06T00:50:31.199Z,1.20
2022-08-06T00:52:57.624Z,1.10
2022-08-06T00:55:32.215Z,0.90
2022-08-06T00:58:02.536Z,0.93
2022-08-06T01:00:30.939Z,1.00
2022-08-06T01:02:57.589Z,1.02
2022-08-06T01:06:04.208Z,0.98
2022-08-06T01:08:10.807Z,0.88
2022-08-06T01:10:42.192Z,1.35
2022-08-06T01:13:25.688Z,0.80
2022-08-06T01:16:08.498Z,0.77
2022-08-06T01:18:42.114Z,0.98
2022-08-06T01:21:58.142Z,1.10
2022-08-06T01:24:24.061Z,1.63
2022-08-06T01:26:54.271Z,0.85
2022-08-06T01:29:27.185Z,0.80
2022-08-06T01:32:10.134Z,1.30
2022-08-06T01:34:39.198Z,1.10
2022-08-06T01:37:12.548Z,0.90
2022-08-06T01:40:02.167Z,0.80
2022-08-06T01:42:34.826Z,1.48
2022-08-06T01:45:05.628Z,1.05
2022-08-06T01:47:54.018Z,0.90
2022-08-06T01:50:28.140Z,1.20
2022-08-06T01:52:59.474Z,0.82
2022-08-06T01:55:42.542Z,0.90
2022-08-06T01:58:26.719Z,1.10
2022-08-06T02:00:55.357Z,0.90
2022-08-06T02:03:39.071Z,0.80
2022-08-06T02:06:36.867Z,0.85
2022-08-06T02:09:23.070Z,1.10
2022-08-06T02:12:02.917Z,0.90
2022-08-06T02:14:33.256Z,0.90
2022-08-06T02:17:13.823Z,0.80
2022-08-06T02:19:59.798Z,1.20
2022-08-06T02:22:32.361Z,1.00
2022-08-06T02:25:02.439Z,0.98
2022-08-06T02:27:43.331Z,1.40
2022-08-06T02:30:16.683Z,1.05
2022-08-06T02:32:45.384Z,1.23
2022-08-06T02:35:12.662Z,0.90
2022-08-06T02:38:01.332Z,0.95
2022-08-06T02:40:33.997Z,0.80
2022-08-06T02:43:09.600Z,1.48
2022-08-06T02:45:58.248Z,0.90
2022-08-06T02:48:32.806Z,0.90
2022-08-06T02:51:00.229Z,0.77
2022-08-06T02:53:44.874Z,0.75
2022-08-06T02:56:18.748Z,0.85
2022-08-06T02:58:58.016Z,0.65
2022-08-06T03:01:39.062Z,0.88
2022-08-06T03:04:09.917Z,0.93
2022-08-06T03:06:37.213Z,0.63
2022-08-06T03:09:05.599Z,0.80
2022-08-06T03:11:34.467Z,0.90
2022-08-06T03:14:32.032Z,1.25
2022-08-06T03:16:51.142Z,0.80
2022-08-06T03:19:55.467Z,0.90
2022-08-06T03:22:06.286Z,0.90
2022-08-06T03:24:38.630Z,1.08
2022-08-06T03:27:09.475Z,0.90
2022-08-06T03:29:36.680Z,0.80
2022-08-06T03:32:13.634Z,0.70
2022-08-06T03:34:52.331Z,0.90
2022-08-06T03:37:19.790Z,0.93
2022-08-06T03:39:53.578Z,1.20
2022-08-06T03:42:20.277Z,0.75
2022-08-06T03:44:47.047Z,0.80
2022-08-06T03:47:30.723Z,0.80
2022-08-06T03:50:16.012Z,0.98
2022-08-06T03:52:51.170Z,0.82
2022-08-06T03:55:23.059Z,0.70
2022-08-06T03:57:50.582Z,0.90
2022-08-06T04:00:18.010Z,1.05
2022-08-06T04:02:56.352Z,0.98
2022-08-06T04:05:24.548Z,1.33
2022-08-06T04:07:56.247Z,1.02
2022-08-06T04:10:34.174Z,0.95
2022-08-06T04:13:08.083Z,1.00
2022-08-06T04:15:48.272Z,1.02
2022-08-06T04:18:16.327Z,1.08
2022-08-06T04:20:46.147Z,0.75
2022-08-06T04:23:13.531Z,0.80
2022-08-06T04:25:45.822Z,0.95
2022-08-06T04:28:16.217Z,1.08
2022-08-06T04:30:47.335Z,1.10
2022-08-06T04:33:15.779Z,1.13
2022-08-06T04:36:05.000Z,1.15
2022-08-06T04:38:33.811Z,1.02
2022-08-06T04:41:03.295Z,1.00
2022-08-06T04:43:38.864Z,1.00
2022-08-06T04:46:20.126Z,1.13
2022-08-06T04:48:48.474Z,1.10
2022-08-06T04:52:45.461Z,1.13
2022-08-06T04:54:07.197Z,1.40
2022-08-06T04:56:48.426Z,1.10
2022-08-06T04:59:16.815Z,1.83
2022-08-06T05:01:57.045Z,1.60
2022-08-06T05:04:29.531Z,1.80
2022-08-06T05:06:58.640Z,1.45
2022-08-06T05:09:42.928Z,1.38
2022-08-06T05:12:16.828Z,1.50
2022-08-06T05:14:49.751Z,1.55
2022-08-06T05:17:18.227Z,1.52
2022-08-06T05:19:51.213Z,1.38
2022-08-06T05:22:39.000Z,1.67
2022-08-06T05:25:14.580Z,1.80
2022-08-06T05:28:03.506Z,1.40
2022-08-06T05:30:29.130Z,1.40
2022-08-06T05:32:56.719Z,1.40
2022-08-06T05:35:23.445Z,1.30
2022-08-06T05:38:07.843Z,1.30
2022-08-06T05:40:52.550Z,1.38
2022-08-06T05:43:22.661Z,1.25
2022-08-06T05:45:49.922Z,1.17
2022-08-06T05:48:18.144Z,1.20
2022-08-06T05:50:58.771Z,1.33
2022-08-06T05:54:02.707Z,1.30
2022-08-06T05:56:38.625Z,1.50
2022-08-06T05:59:06.100Z,1.50
2022-08-06T06:01:33.447Z,1.52
2022-08-06T06:04:02.898Z,1.38
2022-08-06T06:06:31.403Z,1.30
2022-08-06T06:09:01.941Z,1.50
2022-08-06T06:11:47.150Z,1.75
2022-08-06T06:14:36.131Z,1.92
2022-08-06T06:17:09.279Z,1.40
2022-08-06T06:19:39.103Z,1.45
2022-08-06T06:22:08.540Z,1.50
2022-08-06T06:24:38.260Z,1.25
2022-08-06T06:27:35.734Z,1.90
2022-08-06T06:30:06.214Z,1.23
2022-08-06T06:32:52.931Z,1.23
2022-08-06T06:35:34.596Z,1.42
2022-08-06T06:38:13.409Z,1.33
2022-08-06T06:41:00.510Z,1.85
2022-08-06T06:43:44.048Z,1.50
2022-08-06T06:46:40.849Z,1.40
2022-08-06T06:49:59.056Z,1.45
2022-08-06T06:52:10.499Z,1.27
2022-08-06T06:54:40.913Z,1.20
2022-08-06T06:57:10.274Z,1.20
2022-08-06T07:00:01.469Z,1.35
2022-08-06T07:02:27.901Z,1.23
2022-08-06T07:04:59.246Z,1.10
2022-08-06T07:07:26.198Z,1.23
2022-08-06T07:10:00.093Z,1.05
2022-08-06T07:12:31.502Z,0.85
2022-08-06T07:15:01.539Z,0.80
2022-08-06T07:17:44.852Z,0.82
2022-08-06T07:20:26.226Z,1.33
2022-08-06T07:24:07.450Z,0.93
2022-08-06T07:25:53.975Z,1.10
2022-08-06T07:28:28.382Z,1.33
2022-08-06T07:31:03.474Z,0.70
2022-08-06T07:33:59.491Z,1.55
2022-08-06T07:36:19.210Z,1.02
2022-08-06T07:38:47.037Z,0.85
2022-08-06T07:41:16.085Z,0.93
2022-08-06T07:43:59.036Z,1.20
2022-08-06T07:46:30.915Z,2.08
2022-08-06T07:49:00.179Z,1.30
2022-08-06T07:51:33.862Z,1.30
2022-08-06T07:54:06.981Z,1.15
2022-08-06T07:56:36.967Z,1.00
2022-08-06T07:59:03.888Z,0.98
2022-08-06T08:01:37.079Z,1.00
2022-08-06T08:04:34.883Z,0.90
2022-08-06T08:07:07.493Z,1.02
2022-08-06T08:10:02.295Z,0.80
2022-08-06T08:12:33.761Z,0.60
2022-08-06T08:15:02.843Z,0.63
2022-08-06T08:17:34.916Z,0.60
2022-08-06T08:20:15.024Z,1.42
2022-08-06T08:22:48.519Z,0.93
2022-08-06T08:25:16.891Z,0.70
2022-08-06T08:27:48.624Z,0.80
2022-08-06T08:30:15.545Z,0.60
2022-08-06T08:32:42.946Z,0.50
2022-08-06T08:35:16.451Z,0.70
2022-08-06T08:37:43.969Z,0.60
2022-08-06T08:40:10.575Z,0.70
2022-08-06T08:42:40.688Z,0.63
2022-08-06T08:45:13.536Z,0.60
2022-08-06T08:47:53.660Z,0.80
2022-08-06T08:50:28.979Z,0.60
2022-08-06T08:52:58.600Z,0.82
2022-08-06T08:57:10.614Z,1.20
2022-08-06T08:58:41.697Z,0.80
2022-08-06T09:00:59.719Z,1.00
2022-08-06T09:03:26.200Z,1.15
2022-08-06T09:05:53.482Z,0.90
2022-08-06T09:08:59.122Z,0.68
2022-08-06T09:11:12.153Z,0.63
2022-08-06T09:13:57.561Z,0.55
2022-08-06T09:16:31.614Z,0.60
2022-08-06T09:18:59.774Z,0.63
2022-08-06T09:21:26.384Z,0.70
2022-08-06T09:23:58.439Z,0.80
2022-08-06T09:26:52.462Z,0.45
2022-08-06T09:29:24.005Z,0.60
2022-08-06T09:31:58.611Z,0.70
2022-08-06T09:34:39.324Z,0.60
2022-08-06T09:37:08.727Z,0.60
2022-08-06T09:39:46.582Z,0.50
2022-08-06T09:42:43.109Z,1.10
2022-08-06T09:45:16.031Z,0.57
2022-08-06T09:47:57.799Z,0.60
2022-08-06T09:50:37.145Z,0.50
2022-08-06T09:53:13.154Z,0.63
2022-08-06T09:55:41.880Z,0.47
2022-08-06T09:58:08.366Z,0.40
2022-08-06T10:00:37.209Z,0.40
2022-08-06T10:04:03.396Z,0.30
2022-08-06T10:06:14.361Z,1.17
2022-08-06T10:08:41.994Z,0.50
2022-08-06T10:11:08.984Z,0.57
2022-08-06T10:13:43.779Z,0.43
2022-08-06T10:16:21.341Z,0.60
2022-08-06T10:18:56.882Z,0.43
2022-08-06T10:21:41.752Z,0.40
2022-08-06T10:24:12.208Z,0.50
2022-08-06T10:26:38.715Z,0.40
2022-08-06T10:29:11.416Z,0.30
2022-08-06T10:31:37.979Z,0.40
2022-08-06T10:34:11.633Z,0.40
2022-08-06T10:36:45.042Z,0.38
2022-08-06T10:40:03.003Z,0.43
2022-08-06T10:42:10.107Z,0.50
2022-08-06T10:44:45.953Z,0.93
2022-08-06T10:47:18.326Z,0.70
2022-08-06T10:50:25.369Z,0.47
2022-08-06T10:52:46.195Z,0.50
2022-08-06T10:55:12.704Z,0.55
2022-08-06T10:57:41.490Z,0.77
2022-08-06T11:00:12.311Z,0.40
2022-08-06T11:02:58.084Z,0.50
2022-08-06T11:05:27.897Z,0.60
2022-08-06T11:08:25.740Z,0.75
2022-08-06T11:11:19.223Z,0.60
2022-08-06T11:13:52.692Z,1.00
2022-08-06T11:16:29.259Z,0.82
2022-08-06T11:24:01.235Z,0.65
2022-08-06T11:27:01.712Z,0.70
2022-08-06T11:30:03.683Z,0.43
2022-08-06T11:33:03.747Z,0.40
2022-08-06T11:35:54.601Z,0.47
2022-08-06T11:38:44.554Z,0.40
2022-08-06T11:41:55.328Z,0.38
2022-08-06T11:44:16.233Z,0.50
2022-08-06T11:46:48.047Z,0.50
2022-08-06T11:49:18.242Z,0.50
2022-08-06T11:51:46.224Z,0.65
2022-08-06T11:54:15.511Z,0.40
2022-08-06T11:57:19.420Z,0.55
2022-08-06T11:59:53.209Z,0.60
2022-08-06T12:02:40.908Z,0.70
2022-08-06T12:05:17.458Z,0.70
2022-08-06T12:10:17.962Z,0.50
2022-08-06T12:12:55.978Z,1.00
2022-08-06T12:16:00.266Z,0.70
2022-08-06T12:18:20.883Z,1.33
2022-08-06T12:20:56.418Z,1.42
2022-08-06T12:23:54.204Z,1.38
2022-08-06T12:26:10.775Z,2.00
2022-08-06T12:28:37.698Z,2.00
2022-08-06T12:31:23.644Z,1.98
2022-08-06T12:33:51.976Z,2.20
2022-08-06T12:36:31.846Z,1.92
2022-08-06T12:39:00.641Z,1.67
2022-08-06T12:41:45.233Z,2.72
2022-08-06T12:44:14.902Z,2.80
2022-08-06T12:46:41.446Z,2.13
2022-08-06T12:49:10.651Z,2.45
2022-08-06T12:51:37.675Z,1.73
2022-08-06T12:54:06.308Z,2.35
2022-08-06T12:56:37.409Z,2.25
2022-08-06T12:59:05.744Z,2.65
2022-08-06T13:02:07.931Z,1.50
2022-08-06T13:04:21.519Z,2.13
2022-08-06T13:06:49.448Z,1.73
2022-08-06T13:09:16.743Z,1.40
2022-08-06T13:11:50.936Z,2.20
2022-08-06T13:14:18.868Z,1.42
2022-08-06T13:16:54.523Z,2.33
2022-08-06T13:19:28.182Z,1.60
2022-08-06T13:22:00.531Z,1.55
2022-08-06T13:24:30.577Z,1.13
2022-08-06T13:26:59.739Z,1.20
2022-08-06T13:30:31.966Z,1.40
2022-08-06T13:32:28.213Z,1.48
2022-08-06T13:35:01.275Z,1.50
2022-08-06T13:37:56.604Z,1.60
2022-08-06T13:40:46.273Z,1.55
2022-08-06T13:43:38.350Z,1.15
2022-08-06T13:46:20.591Z,1.30
2022-08-06T13:48:55.605Z,1.23
2022-08-06T13:51:27.573Z,1.10
2022-08-06T13:53:57.173Z,1.80
2022-08-06T13:56:28.553Z,1.35
2022-08-06T13:58:57.540Z,1.17
2022-08-06T14:01:23.902Z,1.23
2022-08-06T14:03:50.709Z,1.02
2022-08-06T14:06:17.315Z,1.40
2022-08-06T14:08:44.365Z,0.98
2022-08-06T14:11:14.003Z,1.13
2022-08-06T14:13:42.152Z,1.30
2022-08-06T14:16:08.762Z,0.80
2022-08-06T14:18:39.686Z,0.90
2022-08-06T14:21:09.394Z,1.95
2022-08-06T14:24:00.912Z,1.58
2022-08-06T14:26:27.839Z,1.50
2022-08-06T14:30:27.372Z,2.45
2022-08-06T14:31:53.951Z,1.33
2022-08-06T14:34:35.253Z,1.50
2022-08-06T14:37:03.806Z,1.33
2022-08-06T14:39:59.279Z,1.65
2022-08-06T14:42:47.511Z,1.73
2022-08-06T14:45:14.935Z,1.00
2022-08-06T14:47:57.799Z,1.20
2022-08-06T14:50:37.744Z,1.27
2022-08-06T14:53:04.861Z,1.50
2022-08-06T14:55:32.988Z,1.33
2022-08-06T14:58:04.691Z,1.85
2022-08-06T15:00:37.807Z,1.40
2022-08-06T15:03:13.670Z,1.67
2022-08-06T15:06:05.261Z,2.05
2022-08-06T15:08:28.268Z,1.50
2022-08-06T15:10:56.397Z,1.52
2022-08-06T15:13:36.376Z,1.02
2022-08-06T15:16:03.790Z,0.80
2022-08-06T15:18:54.030Z,1.42
2022-08-06T15:21:16.619Z,1.88
2022-08-06T15:23:53.529Z,1.40
2022-08-06T15:26:46.319Z,0.90
2022-08-06T15:29:10.866Z,1.00
2022-08-06T15:31:41.988Z,1.30
2022-08-06T15:34:08.610Z,1.38
2022-08-06T15:36:39.904Z,1.10
2022-08-06T15:39:52.488Z,0.75
2022-08-06T15:42:12.747Z,1.95
2022-08-06T15:44:41.396Z,1.00
2022-08-06T15:47:08.288Z,1.20
2022-08-06T15:50:03.470Z,1.23
2022-08-06T15:52:22.937Z,1.15
2022-08-06T15:54:52.905Z,1.17
2022-08-06T15:58:05.394Z,1.42
2022-08-06T16:00:17.580Z,1.80
2022-08-06T16:02:49.990Z,1.50
2022-08-06T16:05:32.237Z,1.20
2022-08-06T16:08:04.520Z,1.42
2022-08-06T16:10:33.399Z,1.30
2022-08-06T16:13:00.129Z,1.27
2022-08-06T16:15:26.618Z,1.10
2022-08-06T16:18:09.358Z,1.17
2022-08-06T16:20:44.123Z,1.02
2022-08-06T16:23:11.927Z,1.23
2022-08-06T16:26:15.284Z,1.38
2022-08-06T16:28:48.685Z,1.00
2022-08-06T16:31:16.141Z,1.30
2022-08-06T16:33:53.786Z,1.30
2022-08-06T16:36:32.591Z,1.40
2022-08-06T16:39:13.610Z,1.10
2022-08-06T16:42:00.175Z,0.95
2022-08-06T16:47:13.423Z,1.20
2022-08-06T16:50:17.670Z,1.55
2022-08-06T16:55:15.465Z,1.60
2022-08-06T16:57:49.921Z,1.33
2022-08-06T17:00:59.947Z,2.30
2022-08-06T17:03:13.438Z,2.40
2022-08-06T17:05:46.109Z,3.25
2022-08-06T17:08:17.150Z,3.17
2022-08-06T17:13:38.290Z,3.58
2022-08-06T17:16:06.612Z,4.00
2022-08-06T17:18:39.084Z,3.28
2022-08-06T17:23:51.966Z,4.50
2022-08-06T17:26:34.293Z,3.85
2022-08-06T17:29:01.594Z,3.42
2022-08-06T17:31:55.101Z,3.05
2022-08-06T17:34:29.306Z,3.58
2022-08-06T17:36:57.409Z,2.40
2022-08-06T17:39:38.624Z,1.95
2022-08-06T17:42:12.012Z,1.80
2022-08-06T17:44:45.669Z,1.52
2022-08-06T17:47:12.306Z,1.30
2022-08-06T17:49:43.545Z,1.90
2022-08-06T17:52:12.111Z,1.40
2022-08-06T17:54:46.978Z,1.40
2022-08-06T17:58:34.004Z,1.00
2022-08-06T18:00:13.284Z,1.33
2022-08-06T18:03:14.254Z,1.05
2022-08-06T18:05:53.651Z,1.75
2022-08-06T18:08:35.932Z,6.38
2022-08-06T18:11:02.641Z,6.60
2022-08-06T18:13:53.052Z,8.48
2022-08-06T18:16:17.974Z,8.70
2022-08-06T18:18:48.716Z,9.88
2022-08-06T18:21:24.647Z,8.15
2022-08-06T18:23:56.081Z,10.15
2022-08-06T18:26:30.883Z,9.35
2022-08-06T18:28:59.808Z,9.43
2022-08-06T18:31:59.488Z,8.63
2022-08-06T18:36:43.828Z,8.18
2022-08-06T18:39:14.595Z,8.18
2022-08-06T18:41:56.481Z,7.88
2022-08-06T18:44:27.185Z,8.65
2022-08-06T18:46:56.466Z,8.32
2022-08-06T18:49:39.489Z,8.88
2022-08-06T18:54:56.285Z,7.78
2022-08-06T18:57:28.135Z,10.93
2022-08-06T18:59:55.907Z,9.43
2022-08-06T19:02:26.735Z,12.73
2022-08-06T19:04:54.354Z,14.75
2022-08-06T19:07:26.915Z,14.88
2022-08-06T19:10:14.867Z,13.00
2022-08-06T19:12:42.871Z,12.25
2022-08-06T19:15:11.821Z,9.82
2022-08-06T19:18:09.939Z,11.15
2022-08-06T19:20:30.525Z,13.73
2022-08-06T19:23:02.738Z,14.25
2022-08-06T19:25:52.908Z,14.15
2022-08-06T19:28:36.116Z,11.70
2022-08-06T19:31:11.205Z,13.02
2022-08-06T19:33:38.320Z,13.80
2022-08-06T19:36:30.848Z,13.45
2022-08-06T19:38:53.479Z,12.23
2022-08-06T19:41:55.487Z,13.57
2022-08-06T19:44:28.259Z,12.63
2022-08-06T19:46:56.603Z,11.23
2022-08-06T19:49:23.342Z,10.40
2022-08-06T19:52:02.773Z,11.15
2022-08-06T19:54:36.115Z,9.13
2022-08-06T19:57:03.756Z,8.13
2022-08-06T20:00:51.252Z,8.52
2022-08-06T20:02:21.117Z,7.32
2022-08-06T20:04:52.983Z,7.40
2022-08-06T20:07:34.203Z,7.43
2022-08-06T20:10:03.161Z,7.78
2022-08-06T20:12:34.346Z,6.50
2022-08-06T20:15:05.393Z,6.95
2022-08-06T20:17:46.020Z,4.75
2022-08-06T20:20:17.232Z,4.60
2022-08-06T20:22:44.977Z,5.85
2022-08-06T20:25:18.858Z,5.32
2022-08-06T20:29:08.295Z,4.57
2022-08-06T20:30:37.088Z,5.88
2022-08-06T20:33:11.130Z,5.47
2022-08-06T20:35:37.877Z,6.03
2022-08-06T20:38:07.189Z,5.93
2022-08-06T20:40:37.364Z,4.45
2022-08-06T20:44:06.242Z,5.18
2022-08-06T20:46:07.765Z,5.47
2022-08-06T20:48:37.885Z,5.00
2022-08-06T20:51:05.043Z,5.35
2022-08-06T20:53:33.114Z,4.93
2022-08-06T20:56:03.099Z,4.70
2022-08-06T20:58:32.591Z,5.15
2022-08-06T21:00:59.847Z,4.18
2022-08-06T21:05:11.203Z,3.50
2022-08-06T21:08:39.155Z,3.20
2022-08-06T21:11:14.876Z,3.40
2022-08-06T21:13:59.577Z,3.90
2022-08-06T21:19:00.789Z,3.28
2022-08-06T21:21:27.251Z,3.25
2022-08-06T21:23:58.468Z,3.28
2022-08-06T21:26:34.330Z,3.47
2022-08-06T21:30:08.382Z,3.38
2022-08-06T21:31:53.142Z,2.70
2022-08-06T21:34:20.223Z,2.85
2022-08-06T21:36:46.880Z,2.65
2022-08-06T21:39:16.266Z,3.40
2022-08-06T21:41:55.854Z,3.03
2022-08-06T21:44:27.818Z,2.60
2022-08-06T21:46:58.766Z,2.63
2022-08-06T21:49:58.852Z,2.70
2022-08-06T21:52:16.091Z,2.47
2022-08-06T21:54:46.722Z,3.45
2022-08-06T21:57:17.185Z,2.38
2022-08-06T21:59:52.276Z,2.25
2022-08-06T22:02:21.732Z,1.85
2022-08-06T22:05:00.192Z,2.70
2022-08-06T22:08:05.647Z,2.15
2022-08-06T22:10:14.472Z,2.83
2022-08-06T22:13:12.811Z,2.20
2022-08-06T22:15:34.214Z,2.65
2022-08-06T22:18:16.910Z,2.30
2022-08-06T22:20:45.263Z,2.25
2022-08-06T22:23:11.739Z,2.58
2022-08-06T22:25:38.353Z,2.15
2022-08-06T22:28:05.144Z,2.40
2022-08-06T22:30:36.882Z,1.80
2022-08-06T22:33:10.313Z,1.98
2022-08-06T22:35:38.787Z,1.98
2022-08-06T22:38:24.390Z,1.50
2022-08-06T22:40:51.788Z,1.67
2022-08-06T22:43:22.689Z,1.95
2022-08-06T22:46:02.921Z,1.70
2022-08-06T22:48:36.350Z,1.70
2022-08-06T22:51:10.512Z,1.70
2022-08-06T22:54:28.878Z,1.60
2022-08-06T22:56:28.568Z,1.90
2022-08-06T22:59:04.819Z,1.80
2022-08-06T23:02:06.894Z,2.10
2022-08-06T23:06:55.785Z,1.75
2022-08-06T23:09:22.267Z,2.38
2022-08-06T23:11:58.881Z,1.90
2022-08-06T23:14:27.281Z,1.73
2022-08-06T23:16:58.901Z,1.85
2022-08-06T23:19:26.060Z,1.67
2022-08-06T23:22:04.949Z,1.67
2022-08-06T23:24:36.075Z,1.50
2022-08-06T23:27:03.727Z,1.65
2022-08-06T23:29:34.885Z,1.70
2022-08-06T23:32:08.254Z,1.52
2022-08-06T23:34:36.160Z,1.50
2022-08-06T23:37:10.709Z,1.67
2022-08-06T23:39:38.297Z,1.50
2022-08-06T23:42:08.598Z,1.50
2022-08-06T23:44:42.536Z,1.77
2022-08-06T23:47:55.610Z,1.60
2022-08-06T23:50:01.757Z,1.50
2022-08-06T23:52:29.720Z,1.88
2022-08-06T23:54:59.559Z,1.27
2022-08-06T23:57:32.721Z,1.48
